createdAt,value
2022-07-29T00:04:06.406Z,19.48
2022-07-29T00:09:08.232Z,19.61
2022-07-29T00:14:09.712Z,19.76
2022-07-29T00:19:10.859Z,19.89
2022-07-29T00:24:12.495Z,19.98
2022-07-29T00:34:53.525Z,20.05
2022-07-29T00:39:55.502Z,20.07
2022-07-29T00:44:56.668Z,20.03
2022-07-29T00:49:57.734Z,20.00
2022-07-29T00:54:59.089Z,20.03
2022-07-29T01:00:00.521Z,20.07
2022-07-29T01:05:04.002Z,20.10
2022-07-29T01:10:08.104Z,20.14
2022-07-29T01:15:09.626Z,20.16
2022-07-29T01:20:18.026Z,19.67
2022-07-29T01:25:46.565Z,18.13
2022-07-29T01:30:53.053Z,17.63
2022-07-29T01:35:54.478Z,18.40
2022-07-29T01:41:10.035Z,18.73
2022-07-29T01:46:21.580Z,18.84
2022-07-29T01:51:36.177Z,18.91
2022-07-29T01:56:39.180Z,18.98
2022-07-29T02:01:43.101Z,19.13
2022-07-29T02:06:45.169Z,19.15
2022-07-29T02:11:51.117Z,19.08
2022-07-29T02:16:54.495Z,19.06
2022-07-29T02:21:57.889Z,19.04
2022-07-29T02:27:01.032Z,19.07
2022-07-29T02:32:04.014Z,19.13
2022-07-29T02:37:05.576Z,18.83
2022-07-29T02:42:10.192Z,17.40
2022-07-29T02:47:19.392Z,16.84
2022-07-29T02:52:40.126Z,17.60
2022-07-29T02:57:53.882Z,17.94
2022-07-29T03:02:59.838Z,18.06
2022-07-29T03:08:10.750Z,18.09
2022-07-29T03:13:13.399Z,18.24
2022-07-29T03:18:15.688Z,18.41
2022-07-29T03:23:22.947Z,18.62
2022-07-29T03:28:27.439Z,18.85
2022-07-29T03:33:30.486Z,19.04
2022-07-29T03:38:35.989Z,19.19
2022-07-29T03:43:49.089Z,18.85
2022-07-29T03:48:56.479Z,17.51
2022-07-29T03:53:58.694Z,16.63
2022-07-29T03:59:02.409Z,16.48
2022-07-29T04:04:04.936Z,17.56
2022-07-29T04:09:06.297Z,18.31
2022-07-29T04:14:11.154Z,18.89
2022-07-29T04:19:12.331Z,19.39
2022-07-29T04:24:13.920Z,19.33
2022-07-29T04:29:15.485Z,18.30
2022-07-29T04:34:17.175Z,17.69
2022-07-29T04:39:22.807Z,17.73
2022-07-29T04:44:28.574Z,18.71
2022-07-29T04:49:30.308Z,19.25
2022-07-29T04:54:31.498Z,19.49
2022-07-29T04:59:32.602Z,19.64
2022-07-29T05:04:33.723Z,19.68
2022-07-29T05:09:34.868Z,19.81
2022-07-29T05:14:36.259Z,20.04
2022-07-29T05:19:39.352Z,21.77
2022-07-29T05:24:41.040Z,24.54
2022-07-29T05:29:42.984Z,27.32
2022-07-29T05:34:51.146Z,29.63
2022-07-29T05:39:56.523Z,31.31
2022-07-29T05:44:58.499Z,32.52
2022-07-29T05:49:59.710Z,33.37
2022-07-29T05:55:04.433Z,33.57
2022-07-29T06:00:06.602Z,33.04
2022-07-29T06:05:07.908Z,32.64
2022-07-29T06:10:14.235Z,32.84
2022-07-29T06:15:15.772Z,33.31
2022-07-29T06:20:16.880Z,33.73
2022-07-29T06:25:18.467Z,33.85
2022-07-29T06:30:19.733Z,33.80
2022-07-29T06:35:38.948Z,33.44
2022-07-29T06:41:03.061Z,32.74
2022-07-29T06:46:07.753Z,32.84
2022-07-29T06:51:10.401Z,33.20
2022-07-29T06:56:14.058Z,33.22
2022-07-29T07:01:15.645Z,33.38
2022-07-29T07:06:16.912Z,32.83
2022-07-29T07:11:18.097Z,33.10
2022-07-29T07:16:19.388Z,34.00
2022-07-29T07:21:20.715Z,34.71
2022-07-29T07:26:21.948Z,35.15
2022-07-29T07:31:23.182Z,35.13
2022-07-29T07:36:24.610Z,34.55
2022-07-29T07:41:25.842Z,34.18
2022-07-29T07:46:27.176Z,34.22
2022-07-29T07:51:28.484Z,34.17
2022-07-29T07:56:34.881Z,34.15
2022-07-29T08:01:55.116Z,33.43
2022-07-29T08:06:58.495Z,33.01
2022-07-29T08:11:59.671Z,32.85
2022-07-29T08:17:01.022Z,32.88
2022-07-29T08:22:02.511Z,32.53
2022-07-29T08:27:03.686Z,31.77
2022-07-29T08:32:05.579Z,31.01
2022-07-29T08:37:06.708Z,30.18
2022-07-29T08:42:07.931Z,29.45
2022-07-29T08:47:09.214Z,28.94
2022-07-29T08:52:11.667Z,28.67
2022-07-29T08:57:16.760Z,28.61
2022-07-29T09:02:21.156Z,28.37
2022-07-29T09:07:22.296Z,28.14
2022-07-29T09:12:28.719Z,27.70
2022-07-29T09:17:49.758Z,27.61
2022-07-29T09:22:53.753Z,27.64
2022-07-29T09:27:54.886Z,27.87
2022-07-29T09:33:00.231Z,28.13
2022-07-29T09:38:14.033Z,28.45
2022-07-29T09:43:15.304Z,28.61
2022-07-29T09:48:25.274Z,28.14
2022-07-29T09:53:37.943Z,27.89
2022-07-29T09:58:39.190Z,27.47
2022-07-29T10:03:59.460Z,26.81
2022-07-29T10:09:19.746Z,26.06
2022-07-29T10:14:23.874Z,25.85
2022-07-29T10:19:25.308Z,26.12
2022-07-29T10:24:28.438Z,25.94
2022-07-29T10:29:31.573Z,25.52
2022-07-29T10:34:54.268Z,25.56
2022-07-29T10:40:33.402Z,25.67
2022-07-29T10:45:37.251Z,25.58
2022-07-29T10:51:04.455Z,25.24
2022-07-29T10:56:26.717Z,25.30
2022-07-29T11:01:37.222Z,25.10
2022-07-29T11:06:58.708Z,25.10
2022-07-29T11:12:01.027Z,25.43
2022-07-29T11:17:06.975Z,25.75
2022-07-29T11:22:10.173Z,25.96
2022-07-29T11:27:18.228Z,25.67
2022-07-29T11:32:24.183Z,25.41
2022-07-29T11:37:27.896Z,25.53
2022-07-29T11:42:35.328Z,25.79
2022-07-29T11:47:40.643Z,26.04
2022-07-29T11:52:49.581Z,26.10
2022-07-29T11:58:04.041Z,26.08
2022-07-29T12:03:11.271Z,26.01
2022-07-29T12:08:19.874Z,25.84
2022-07-29T12:13:22.227Z,25.80
2022-07-29T12:18:24.879Z,25.83
2022-07-29T12:23:29.288Z,25.86
2022-07-29T12:28:39.507Z,25.74
2022-07-29T12:33:41.484Z,25.80
2022-07-29T12:38:43.420Z,26.06
2022-07-29T12:44:03.476Z,26.17
2022-07-29T12:49:04.783Z,26.28
2022-07-29T12:54:11.189Z,26.51
2022-07-29T12:59:13.843Z,26.73
2022-07-29T13:04:36.773Z,26.91
2022-07-29T13:09:40.741Z,26.82
2022-07-29T13:14:51.422Z,26.74
2022-07-29T13:20:05.146Z,26.73
2022-07-29T13:25:10.264Z,26.67
2022-07-29T13:30:12.620Z,26.61
2022-07-29T13:35:14.523Z,26.59
2022-07-29T13:40:15.856Z,26.72
2022-07-29T13:45:17.651Z,26.77
2022-07-29T13:50:19.039Z,26.76
2022-07-29T13:55:20.799Z,26.71
2022-07-29T14:00:23.827Z,26.71
2022-07-29T14:05:24.969Z,26.56
2022-07-29T14:10:26.939Z,26.26
2022-07-29T14:15:28.213Z,25.99
2022-07-29T14:20:30.132Z,25.74
2022-07-29T14:25:31.365Z,25.52
2022-07-29T14:30:32.550Z,25.42
2022-07-29T14:35:33.721Z,25.53
2022-07-29T14:40:35.196Z,25.84
2022-07-29T14:45:36.414Z,26.13
2022-07-29T14:50:38.371Z,26.29
2022-07-29T14:55:40.707Z,26.27
2022-07-29T15:00:42.034Z,26.12
2022-07-29T15:05:43.602Z,25.94
2022-07-29T15:10:44.844Z,25.86
2022-07-29T15:15:46.107Z,25.74
2022-07-29T15:20:47.378Z,25.63
2022-07-29T15:25:48.529Z,25.36
2022-07-29T15:30:49.674Z,24.97
2022-07-29T15:35:50.793Z,24.65
2022-07-29T15:40:51.968Z,24.38
2022-07-29T15:46:11.914Z,24.24
2022-07-29T15:51:14.302Z,24.28
2022-07-29T15:56:15.636Z,24.40
2022-07-29T16:01:17.851Z,24.49
2022-07-29T16:06:19.628Z,24.51
2022-07-29T16:11:21.013Z,24.46
2022-07-29T16:16:22.366Z,24.35
2022-07-29T16:21:24.056Z,24.25
2022-07-29T16:26:25.195Z,24.19
2022-07-29T16:31:27.222Z,24.14
2022-07-29T16:36:28.591Z,23.93
2022-07-29T16:41:29.778Z,23.79
2022-07-29T16:46:31.075Z,23.64
2022-07-29T16:51:32.829Z,23.45
2022-07-29T16:56:34.318Z,23.23
2022-07-29T17:01:35.753Z,23.00
2022-07-29T17:06:39.060Z,22.86
2022-07-29T17:11:52.349Z,22.78
2022-07-29T17:17:02.014Z,22.79
2022-07-29T17:22:19.048Z,22.74
2022-07-29T17:27:20.885Z,22.69
2022-07-29T17:32:22.650Z,22.64
2022-07-29T17:37:23.782Z,22.55
2022-07-29T17:42:24.928Z,22.42
2022-07-29T17:47:26.057Z,22.30
2022-07-29T17:52:27.144Z,22.17
2022-07-29T17:57:28.513Z,22.07
2022-07-29T18:02:29.893Z,21.87
2022-07-29T18:07:31.311Z,21.69
2022-07-29T18:12:32.465Z,21.55
2022-07-29T18:17:52.670Z,21.42
2022-07-29T18:22:55.100Z,21.27
2022-07-29T18:28:00.361Z,21.12
2022-07-29T18:33:20.618Z,20.98
2022-07-29T18:38:22.540Z,20.84
2022-07-29T18:43:23.717Z,20.71
2022-07-29T18:48:24.918Z,20.54
2022-07-29T18:53:26.188Z,20.37
2022-07-29T18:58:27.509Z,20.20
2022-07-29T19:03:29.318Z,20.06
2022-07-29T19:08:30.478Z,19.92
2022-07-29T19:13:32.753Z,19.78
2022-07-29T19:18:33.894Z,19.65
2022-07-29T19:24:01.490Z,19.54
2022-07-29T19:28:56.649Z,19.41
2022-07-29T19:33:57.845Z,19.28
2022-07-29T19:38:59.884Z,19.14
2022-07-29T19:44:01.221Z,18.99
2022-07-29T19:49:05.677Z,18.84
2022-07-29T19:54:07.971Z,18.67
2022-07-29T19:59:10.602Z,18.54
2022-07-29T20:04:11.718Z,18.45
2022-07-29T20:09:16.980Z,18.34
2022-07-29T20:14:22.244Z,18.24
2022-07-29T20:19:23.734Z,18.15
2022-07-29T20:24:25.205Z,18.06
2022-07-29T20:29:26.325Z,17.96
2022-07-29T20:34:27.533Z,17.87
2022-07-29T20:39:29.493Z,17.75
2022-07-29T20:44:30.615Z,17.66
2022-07-29T20:49:31.786Z,17.56
2022-07-29T20:54:33.099Z,17.48
2022-07-29T20:59:34.219Z,17.41
2022-07-29T21:04:36.360Z,17.35
2022-07-29T21:09:37.525Z,17.29
2022-07-29T21:14:38.953Z,17.24
2022-07-29T21:19:40.552Z,17.15
2022-07-29T21:24:41.724Z,17.08
2022-07-29T21:29:43.052Z,17.02
2022-07-29T21:34:44.229Z,16.93
2022-07-29T21:39:45.407Z,16.83
2022-07-29T21:44:46.884Z,16.74
2022-07-29T21:49:48.101Z,16.66
2022-07-29T21:54:51.066Z,16.55
2022-07-29T21:59:52.375Z,16.47
2022-07-29T22:04:53.566Z,16.40
2022-07-29T22:09:55.026Z,16.30
2022-07-29T22:14:56.493Z,16.18
2022-07-29T22:19:57.968Z,16.09
2022-07-29T22:24:59.096Z,15.98
2022-07-29T22:30:00.165Z,16.37
2022-07-29T22:35:01.778Z,17.74
2022-07-29T22:40:04.078Z,18.64
2022-07-29T22:45:05.656Z,19.26
2022-07-29T22:50:07.204Z,19.15
2022-07-29T22:55:08.823Z,18.01
2022-07-29T23:00:11.594Z,17.29
2022-07-29T23:05:14.852Z,16.82
2022-07-29T23:10:15.944Z,16.44
2022-07-29T23:15:17.086Z,16.14
2022-07-29T23:20:19.348Z,15.87
2022-07-29T23:25:20.523Z,15.64
2022-07-29T23:30:21.735Z,15.93
2022-07-29T23:35:22.882Z,17.13
2022-07-29T23:40:24.093Z,17.94
2022-07-29T23:45:39.970Z,18.47
2022-07-29T23:50:46.227Z,18.92
2022-07-29T23:55:47.255Z,18.78
